createdAt,value
2023-03-02T00:00:09.106Z,1576.1510
2023-03-02T00:00:20.302Z,1568.7430
2023-03-02T00:00:31.515Z,1580.8170
2023-03-02T00:00:42.698Z,1576.1510
2023-03-02T00:00:53.763Z,1583.6300
2023-03-02T00:01:04.830Z,1585.5110
2023-03-02T00:01:15.986Z,1578.0140
2023-03-02T00:01:27.186Z,1581.7540
2023-03-02T00:01:38.396Z,1570.5880
2023-03-02T00:01:49.613Z,1581.7540
2023-03-02T00:02:00.793Z,1586.4530
2023-03-02T00:02:12.077Z,1589.2860
2023-03-02T00:02:23.235Z,1578.9470
2023-03-02T00:02:34.439Z,1581.7540
2023-03-02T00:02:45.682Z,1575.2209
2023-03-02T00:02:56.898Z,1562.3170
2023-03-02T00:03:08.006Z,1576.1510
2023-03-02T00:03:19.263Z,1570.5880
2023-03-02T00:03:30.470Z,1586.4530
2023-03-02T00:03:41.648Z,1583.6300
2023-03-02T00:03:52.815Z,1575.2209
2023-03-02T00:04:04.066Z,1572.4380
2023-03-02T00:04:15.269Z,1581.7540
2023-03-02T00:04:26.411Z,1578.9470
2023-03-02T00:04:37.598Z,1578.0140
2023-03-02T00:04:48.826Z,1576.1510
2023-03-02T00:04:59.995Z,1572.4380
2023-03-02T00:05:11.178Z,1588.3400
2023-03-02T00:05:22.392Z,1578.0140
2023-03-02T00:05:33.579Z,1578.9470
2023-03-02T00:05:44.665Z,1583.6300
2023-03-02T00:05:55.755Z,1582.6910
2023-03-02T00:06:06.860Z,1586.4530
2023-03-02T00:06:18.064Z,1586.4530
2023-03-02T00:06:29.354Z,1579.8820
2023-03-02T00:06:40.385Z,1587.3960
2023-03-02T00:06:51.470Z,1588.3400
2023-03-02T00:07:02.544Z,1581.7540
2023-03-02T00:07:13.755Z,1580.8170
2023-03-02T00:07:24.941Z,1572.4380
2023-03-02T00:07:36.044Z,1589.2860
2023-03-02T00:07:47.088Z,1580.8170
2023-03-02T00:07:58.177Z,1576.1510
2023-03-02T00:08:09.207Z,1589.2860
2023-03-02T00:08:20.341Z,1577.0820
2023-03-02T00:08:31.536Z,1584.5699
2023-03-02T00:08:42.705Z,1583.6300
2023-03-02T00:08:53.909Z,1582.6910
2023-03-02T00:09:05.107Z,1596.8900
2023-03-02T00:09:16.307Z,1583.6300
2023-03-02T00:09:27.506Z,1587.3960
2023-03-02T00:09:38.742Z,1598.8020
2023-03-02T00:09:49.914Z,1580.8170
2023-03-02T00:10:00.991Z,1589.2860
2023-03-02T00:10:12.081Z,1578.0140
2023-03-02T00:10:23.190Z,1591.1801
2023-03-02T00:10:34.391Z,1586.4530
2023-03-02T00:10:45.615Z,1576.1510
2023-03-02T00:10:56.650Z,1587.3960
2023-03-02T00:11:07.710Z,1584.5699
2023-03-02T00:11:18.793Z,1572.4380
2023-03-02T00:11:29.843Z,1570.5880
2023-03-02T00:11:40.954Z,1578.0140
2023-03-02T00:11:52.090Z,1586.4530
2023-03-02T00:12:03.252Z,1578.0140
2023-03-02T00:12:14.300Z,1581.7540
2023-03-02T00:12:25.354Z,1585.5110
2023-03-02T00:12:36.417Z,1584.5699
2023-03-02T00:12:47.524Z,1576.1510
2023-03-02T00:12:58.541Z,1576.1510
2023-03-02T00:13:09.596Z,1572.4380
2023-03-02T00:13:20.781Z,1568.7430
2023-03-02T00:13:31.875Z,1577.0820
2023-03-02T00:13:43.135Z,1593.0790
2023-03-02T00:13:54.208Z,1587.3960
2023-03-02T00:14:05.277Z,1581.7540
2023-03-02T00:14:16.502Z,1578.0140
2023-03-02T00:14:27.667Z,1576.1510
2023-03-02T00:14:38.885Z,1574.2920
2023-03-02T00:14:50.069Z,1583.6300
2023-03-02T00:15:01.306Z,1581.7540
2023-03-02T00:15:12.469Z,1581.7540
2023-03-02T00:15:23.665Z,1579.8820
2023-03-02T00:15:34.906Z,1577.0820
2023-03-02T00:15:46.119Z,1581.7540
2023-03-02T00:15:57.349Z,1579.8820
2023-03-02T00:16:08.674Z,1579.8820
2023-03-02T00:16:19.816Z,1583.6300
2023-03-02T00:16:31.313Z,1575.2209
2023-03-02T00:16:42.754Z,1579.8820
2023-03-02T00:16:53.914Z,1568.7430
2023-03-02T00:17:04.972Z,1578.0140
2023-03-02T00:17:16.050Z,1577.0820
2023-03-02T00:17:27.212Z,1574.2920
2023-03-02T00:17:38.386Z,1584.5699
2023-03-02T00:17:49.589Z,1572.4380
2023-03-02T00:18:00.786Z,1583.6300
2023-03-02T00:18:11.983Z,1568.7430
2023-03-02T00:18:23.199Z,1574.2920
2023-03-02T00:18:34.286Z,1584.5699
2023-03-02T00:18:45.335Z,1581.7540
2023-03-02T00:18:56.468Z,1578.0140
2023-03-02T00:19:07.671Z,1573.3650
2023-03-02T00:19:18.865Z,1583.6300
2023-03-02T00:19:30.070Z,1581.7540
2023-03-02T00:19:41.266Z,1582.6910
2023-03-02T00:19:52.466Z,1580.8170
2023-03-02T00:20:03.650Z,1581.7540
2023-03-02T00:20:14.886Z,1571.5129
2023-03-02T00:20:26.073Z,1581.7540
2023-03-02T00:20:37.116Z,1585.5110
2023-03-02T00:20:48.181Z,1587.3960
2023-03-02T00:20:59.339Z,1581.7540
2023-03-02T00:21:10.593Z,1578.0140
2023-03-02T00:21:21.745Z,1578.0140
2023-03-02T00:21:32.943Z,1580.8170
2023-03-02T00:21:44.141Z,1576.1510
2023-03-02T00:21:55.357Z,1583.6300
2023-03-02T00:22:06.581Z,1576.1510
2023-03-02T00:22:17.756Z,1575.2209
2023-03-02T00:22:28.962Z,1574.2920
2023-03-02T00:22:40.000Z,1587.3960
2023-03-02T00:22:51.032Z,1583.6300
2023-03-02T00:23:02.220Z,1580.8170
2023-03-02T00:23:13.427Z,1578.0140
2023-03-02T00:23:24.635Z,1580.8170
2023-03-02T00:23:35.848Z,1591.1801
2023-03-02T00:23:47.029Z,1573.3650
2023-03-02T00:23:58.248Z,1589.2860
2023-03-02T00:24:09.431Z,1578.9470
2023-03-02T00:24:20.637Z,1585.5110
2023-03-02T00:24:31.845Z,1581.7540
2023-03-02T00:24:42.894Z,1579.8820
2023-03-02T00:24:53.952Z,1587.3960
2023-03-02T00:25:05.103Z,1579.8820
2023-03-02T00:25:16.185Z,1585.5110
2023-03-02T00:25:27.265Z,1585.5110
2023-03-02T00:25:38.407Z,1578.0140
2023-03-02T00:25:49.449Z,1588.3400
2023-03-02T00:26:00.550Z,1591.1801
2023-03-02T00:26:11.693Z,1594.0300
2023-03-02T00:26:22.913Z,1583.6300
2023-03-02T00:26:34.389Z,1587.3960
2023-03-02T00:26:45.634Z,1583.6300
2023-03-02T00:26:56.797Z,1582.6910
2023-03-02T00:27:08.001Z,1585.5110
2023-03-02T00:27:19.197Z,1588.3400
2023-03-02T00:27:30.396Z,1589.2860
2023-03-02T00:27:41.608Z,1585.5110
2023-03-02T00:27:52.658Z,1572.4380
2023-03-02T00:28:03.763Z,1583.6300
2023-03-02T00:28:14.873Z,1585.5110
2023-03-02T00:28:25.899Z,1576.1510
2023-03-02T00:28:36.982Z,1591.1801
2023-03-02T00:28:48.171Z,1593.0790
2023-03-02T00:28:59.219Z,1581.7540
2023-03-02T00:29:10.290Z,1578.0140
2023-03-02T00:29:21.439Z,1578.9470
2023-03-02T00:29:32.623Z,1591.1801
2023-03-02T00:29:43.825Z,1593.0790
2023-03-02T00:29:54.865Z,1584.5699
2023-03-02T00:30:05.917Z,1574.2920
2023-03-02T00:30:17.100Z,1588.3400
2023-03-02T00:30:28.305Z,1594.9821
2023-03-02T00:30:39.533Z,1587.3960
2023-03-02T00:30:50.717Z,1574.2920
2023-03-02T00:31:01.961Z,1591.1801
2023-03-02T00:31:13.142Z,1581.7540
2023-03-02T00:31:24.371Z,1586.4530
2023-03-02T00:31:35.577Z,1593.0790
2023-03-02T00:31:46.728Z,1600.7190
2023-03-02T00:31:57.955Z,1589.2860
2023-03-02T00:32:09.053Z,1596.8900
2023-03-02T00:32:20.326Z,1584.5699
2023-03-02T00:32:31.534Z,1587.3960
2023-03-02T00:32:42.709Z,1589.2860
2023-03-02T00:32:53.796Z,1591.1801
2023-03-02T00:33:12.469Z,1587.3960
2023-03-02T00:33:23.660Z,1575.2209
2023-03-02T00:33:34.744Z,1572.4380
2023-03-02T00:33:45.846Z,1576.1510
2023-03-02T00:33:56.949Z,1579.8820
2023-03-02T00:34:08.139Z,1578.0140
2023-03-02T00:34:19.346Z,1587.3960
2023-03-02T00:34:30.562Z,1575.2209
2023-03-02T00:34:41.757Z,1581.7540
2023-03-02T00:34:52.798Z,1587.3960
2023-03-02T00:35:04.144Z,1581.7540
2023-03-02T00:35:15.340Z,1587.3960
2023-03-02T00:35:26.575Z,1588.3400
2023-03-02T00:35:37.787Z,1573.3650
2023-03-02T00:35:49.022Z,1580.8170
2023-03-02T00:36:00.240Z,1586.4530
2023-03-02T00:36:11.363Z,1583.6300
2023-03-02T00:36:22.570Z,1579.8820
2023-03-02T00:36:33.614Z,1580.8170
2023-03-02T00:36:44.766Z,1591.1801
2023-03-02T00:36:55.816Z,1578.0140
2023-03-02T00:37:07.032Z,1585.5110
2023-03-02T00:37:18.257Z,1574.2920
2023-03-02T00:37:29.424Z,1586.4530
2023-03-02T00:37:40.616Z,1588.3400
2023-03-02T00:37:51.754Z,1591.1801
2023-03-02T00:38:02.833Z,1591.1801
2023-03-02T00:38:13.899Z,1591.1801
2023-03-02T00:38:25.113Z,1577.0820
2023-03-02T00:38:36.184Z,1591.1801
2023-03-02T00:38:47.309Z,1592.1290
2023-03-02T00:38:58.379Z,1580.8170
2023-03-02T00:39:09.449Z,1589.2860
2023-03-02T00:39:20.600Z,1593.0790
2023-03-02T00:39:31.668Z,1578.0140
2023-03-02T00:39:42.723Z,1593.0790
2023-03-02T00:39:53.788Z,1589.2860
2023-03-02T00:40:04.942Z,1592.1290
2023-03-02T00:40:16.002Z,1600.7190
2023-03-02T00:40:27.089Z,1590.2321
2023-03-02T00:40:38.224Z,1589.2860
2023-03-02T00:40:49.298Z,1593.0790
2023-03-02T00:41:00.362Z,1591.1801
2023-03-02T00:41:11.481Z,1589.2860
2023-03-02T00:41:22.517Z,1590.2321
2023-03-02T00:41:33.579Z,1592.1290
2023-03-02T00:41:44.779Z,1591.1801
2023-03-02T00:41:55.835Z,1592.1290
2023-03-02T00:42:06.867Z,1588.3400
2023-03-02T00:42:18.064Z,1582.6910
2023-03-02T00:42:29.269Z,1590.2321
2023-03-02T00:42:40.467Z,1593.0790
2023-03-02T00:42:51.680Z,1589.2860
2023-03-02T00:43:02.890Z,1591.1801
2023-03-02T00:43:14.064Z,1594.0300
2023-03-02T00:43:25.257Z,1587.3960
2023-03-02T00:43:36.317Z,1577.0820
2023-03-02T00:43:47.426Z,1596.8900
2023-03-02T00:43:58.551Z,1591.1801
2023-03-02T00:44:09.807Z,1587.3960
2023-03-02T00:44:20.953Z,1596.8900
2023-03-02T00:44:32.152Z,1587.3960
2023-03-02T00:44:43.230Z,1578.0140
2023-03-02T00:44:54.287Z,1591.1801
2023-03-02T00:45:05.445Z,1585.5110
2023-03-02T00:45:16.568Z,1594.9821
2023-03-02T00:45:27.842Z,1598.8020
2023-03-02T00:45:39.024Z,1604.5670
2023-03-02T00:45:50.130Z,1597.8459
2023-03-02T00:46:01.218Z,1600.7190
2023-03-02T00:46:12.419Z,1594.9821
2023-03-02T00:46:23.552Z,1589.2860
2023-03-02T00:46:35.246Z,1600.7190
2023-03-02T00:46:46.700Z,1587.3960
2023-03-02T00:46:57.927Z,1585.5110
2023-03-02T00:47:09.036Z,1593.0790
2023-03-02T00:47:20.145Z,1592.1290
2023-03-02T00:47:31.354Z,1593.0790
2023-03-02T00:47:42.601Z,1587.3960
2023-03-02T00:47:53.729Z,1592.1290
2023-03-02T00:48:04.984Z,1591.1801
2023-03-02T00:48:16.166Z,1598.8020
2023-03-02T00:48:27.354Z,1601.6801
2023-03-02T00:48:38.536Z,1594.9821
2023-03-02T00:48:49.801Z,1590.2321
2023-03-02T00:49:00.945Z,1592.1290
2023-03-02T00:49:12.194Z,1586.4530
2023-03-02T00:49:23.355Z,1595.9351
2023-03-02T00:49:34.471Z,1600.7190
2023-03-02T00:49:45.531Z,1595.9351
2023-03-02T00:49:56.627Z,1587.3960
2023-03-02T00:50:07.831Z,1606.4980
2023-03-02T00:50:19.043Z,1591.1801
2023-03-02T00:50:30.222Z,1590.2321
2023-03-02T00:50:41.421Z,1596.8900
2023-03-02T00:50:52.630Z,1598.8020
2023-03-02T00:51:03.823Z,1596.8900
2023-03-02T00:51:14.873Z,1598.8020
2023-03-02T00:51:25.926Z,1601.6801
2023-03-02T00:51:37.098Z,1597.8459
2023-03-02T00:51:48.303Z,1590.2321
2023-03-02T00:51:59.504Z,1590.2321
2023-03-02T00:52:10.670Z,1593.0790
2023-03-02T00:52:21.936Z,1594.9821
2023-03-02T00:52:33.105Z,1593.0790
2023-03-02T00:52:44.298Z,1596.8900
2023-03-02T00:52:55.497Z,1600.7190
2023-03-02T00:53:06.708Z,1589.2860
2023-03-02T00:53:18.003Z,1600.7190
2023-03-02T00:53:29.097Z,1602.6410
2023-03-02T00:53:40.309Z,1589.2860
2023-03-02T00:53:51.438Z,1599.7600
2023-03-02T00:54:02.512Z,1597.8459
2023-03-02T00:54:13.595Z,1593.0790
2023-03-02T00:54:24.639Z,1590.2321
2023-03-02T00:54:35.720Z,1598.8020
2023-03-02T00:54:46.915Z,1611.3459
2023-03-02T00:54:57.942Z,1593.0790
2023-03-02T00:55:09.011Z,1598.8020
2023-03-02T00:55:20.136Z,1612.3190
2023-03-02T00:55:31.350Z,1594.0300
2023-03-02T00:55:42.544Z,1598.8020
2023-03-02T00:55:53.743Z,1600.7190
2023-03-02T00:56:04.950Z,1604.5670
2023-03-02T00:56:16.073Z,1602.6410
2023-03-02T00:56:27.108Z,1604.5670
2023-03-02T00:56:38.228Z,1602.6410
2023-03-02T00:56:49.436Z,1596.8900
2023-03-02T00:57:00.472Z,1604.5670
2023-03-02T00:57:11.539Z,1597.8459
2023-03-02T00:57:22.703Z,1613.2930
2023-03-02T00:57:33.904Z,1600.7190
2023-03-02T00:57:45.111Z,1600.7190
2023-03-02T00:57:56.184Z,1600.7190
2023-03-02T00:58:07.262Z,1593.0790
2023-03-02T00:58:18.308Z,1601.6801
2023-03-02T00:58:29.435Z,1595.9351
2023-03-02T00:58:40.527Z,1596.8900
2023-03-02T00:58:51.711Z,1603.6040
2023-03-02T00:59:02.756Z,1600.7190
2023-03-02T00:59:13.803Z,1594.0300
2023-03-02T00:59:24.857Z,1596.8900
2023-03-02T00:59:35.931Z,1600.7190
2023-03-02T00:59:47.084Z,1598.8020
2023-03-02T00:59:58.236Z,1599.7600
2023-03-02T01:00:09.427Z,1599.7600
2023-03-02T01:00:20.632Z,1605.5320
2023-03-02T01:00:31.715Z,1606.4980
2023-03-02T01:00:42.785Z,1608.4340
2023-03-02T01:00:53.920Z,1608.4340
2023-03-02T01:01:05.120Z,1598.8020
2023-03-02T01:01:18.512Z,1602.6410
2023-03-02T01:01:29.845Z,1587.3960
2023-03-02T01:01:40.945Z,1603.6040
2023-03-02T01:01:52.213Z,1593.0790
2023-03-02T01:02:03.379Z,1602.6410
2023-03-02T01:02:14.540Z,1601.6801
2023-03-02T01:02:25.851Z,1607.4650
2023-03-02T01:02:37.106Z,1604.5670
2023-03-02T01:02:48.403Z,1606.4980
2023-03-02T01:02:59.865Z,1605.5320
2023-03-02T01:03:11.409Z,1604.5670
2023-03-02T01:03:22.530Z,1593.0790
2023-03-02T01:03:33.697Z,1596.8900
2023-03-02T01:03:44.809Z,1603.6040
2023-03-02T01:03:56.033Z,1602.6410
2023-03-02T01:04:07.206Z,1600.7190
2023-03-02T01:04:18.410Z,1594.9821
2023-03-02T01:04:29.620Z,1608.4340
2023-03-02T01:04:40.798Z,1591.1801
2023-03-02T01:04:52.030Z,1596.8900
2023-03-02T01:05:03.100Z,1608.4340
2023-03-02T01:05:14.203Z,1610.3740
2023-03-02T01:05:25.292Z,1602.6410
2023-03-02T01:05:36.299Z,1606.4980
2023-03-02T01:05:47.371Z,1594.9821
2023-03-02T01:05:58.565Z,1600.7190
2023-03-02T01:06:09.644Z,1597.8459
2023-03-02T01:06:20.717Z,1601.6801
2023-03-02T01:06:32.210Z,1602.6410
2023-03-02T01:06:43.716Z,1592.1290
2023-03-02T01:06:54.875Z,1603.6040
2023-03-02T01:07:05.981Z,1600.7190
2023-03-02T01:07:17.072Z,1597.8459
2023-03-02T01:07:28.167Z,1622.1140
2023-03-02T01:07:39.352Z,1606.4980
2023-03-02T01:07:50.432Z,1600.7190
2023-03-02T01:08:01.489Z,1597.8459
2023-03-02T01:08:12.557Z,1602.6410
2023-03-02T01:08:23.660Z,1620.1460
2023-03-02T01:08:34.725Z,1608.4340
2023-03-02T01:08:45.829Z,1606.4980
2023-03-02T01:08:56.920Z,1608.4340
2023-03-02T01:09:08.022Z,1626.0660
2023-03-02T01:09:19.089Z,1607.4650
2023-03-02T01:09:30.155Z,1597.8459
2023-03-02T01:09:41.278Z,1601.6801
2023-03-02T01:09:52.485Z,1610.3740
2023-03-02T01:10:03.584Z,1609.4030
2023-03-02T01:10:14.650Z,1606.4980
2023-03-02T01:10:25.709Z,1610.3740
2023-03-02T01:10:36.761Z,1601.6801
2023-03-02T01:10:47.841Z,1604.5670
2023-03-02T01:10:58.932Z,1607.4650
2023-03-02T01:11:10.008Z,1600.7190
2023-03-02T01:11:21.158Z,1608.4340
2023-03-02T01:11:32.234Z,1610.3740
2023-03-02T01:11:43.296Z,1615.2450
2023-03-02T01:11:54.413Z,1607.4650
2023-03-02T01:12:05.616Z,1616.2230
2023-03-02T01:12:16.801Z,1607.4650
2023-03-02T01:12:27.997Z,1616.2230
2023-03-02T01:12:39.036Z,1597.8459
2023-03-02T01:12:50.085Z,1608.4340
2023-03-02T01:13:01.326Z,1592.1290
2023-03-02T01:13:12.494Z,1606.4980
2023-03-02T01:13:23.564Z,1606.4980
2023-03-02T01:13:34.644Z,1596.8900
2023-03-02T01:13:45.747Z,1602.6410
2023-03-02T01:13:56.844Z,1604.5670
2023-03-02T01:14:07.958Z,1608.4340
2023-03-02T01:14:19.052Z,1602.6410
2023-03-02T01:14:30.234Z,1606.4980
2023-03-02T01:14:41.433Z,1614.2679
2023-03-02T01:14:52.652Z,1609.4030
2023-03-02T01:15:03.848Z,1620.1460
2023-03-02T01:15:15.032Z,1602.6410
2023-03-02T01:15:26.231Z,1614.2679
2023-03-02T01:15:37.437Z,1600.7190
2023-03-02T01:15:48.723Z,1606.4980
2023-03-02T01:15:59.888Z,1607.4650
2023-03-02T01:16:11.094Z,1604.5670
2023-03-02T01:16:22.219Z,1605.5320
2023-03-02T01:16:33.680Z,1600.7190
2023-03-02T01:16:45.293Z,1604.5670
2023-03-02T01:16:56.350Z,1613.2930
2023-03-02T01:17:07.441Z,1605.5320
2023-03-02T01:17:18.566Z,1604.5670
2023-03-02T01:17:29.743Z,1608.4340
2023-03-02T01:17:40.967Z,1608.4340
2023-03-02T01:17:51.993Z,1601.6801
2023-03-02T01:18:03.053Z,1599.7600
2023-03-02T01:18:14.241Z,1605.5320
2023-03-02T01:18:25.462Z,1610.3740
2023-03-02T01:18:36.632Z,1602.6410
2023-03-02T01:18:47.831Z,1620.1460
2023-03-02T01:18:59.065Z,1614.2679
2023-03-02T01:19:10.286Z,1613.2930
2023-03-02T01:19:21.448Z,1612.3190
2023-03-02T01:19:32.639Z,1604.5670
2023-03-02T01:19:43.851Z,1608.4340
2023-03-02T01:19:54.905Z,1604.5670
2023-03-02T01:20:05.955Z,1620.1460
2023-03-02T01:20:17.142Z,1604.5670
2023-03-02T01:20:28.318Z,1611.3459
2023-03-02T01:20:39.519Z,1612.3190
2023-03-02T01:20:50.718Z,1602.6410
2023-03-02T01:21:01.770Z,1613.2930
2023-03-02T01:21:12.927Z,1613.2930
2023-03-02T01:21:24.044Z,1606.4980
2023-03-02T01:21:35.071Z,1608.4340
2023-03-02T01:21:46.134Z,1608.4340
2023-03-02T01:21:57.279Z,1610.3740
2023-03-02T01:22:08.336Z,1619.1630
2023-03-02T01:22:19.402Z,1608.4340
2023-03-02T01:22:30.570Z,1614.2679
2023-03-02T01:22:41.756Z,1613.2930
2023-03-02T01:22:52.965Z,1588.3400
2023-03-02T01:23:04.048Z,1604.5670
2023-03-02T01:23:15.102Z,1598.8020
2023-03-02T01:23:26.234Z,1608.4340
2023-03-02T01:23:37.460Z,1614.2679
2023-03-02T01:23:48.485Z,1612.3190
2023-03-02T01:23:59.531Z,1612.3190
2023-03-02T01:24:10.761Z,1615.2450
2023-03-02T01:24:21.802Z,1604.5670
2023-03-02T01:24:32.853Z,1622.1140
2023-03-02T01:24:43.996Z,1608.4340
2023-03-02T01:24:55.199Z,1615.2450
2023-03-02T01:25:06.400Z,1615.2450
2023-03-02T01:25:17.593Z,1616.2230
2023-03-02T01:25:28.669Z,1616.2230
2023-03-02T01:25:39.757Z,1601.6801
2023-03-02T01:25:50.887Z,1606.4980
2023-03-02T01:26:02.083Z,1614.2679
2023-03-02T01:26:13.151Z,1611.3459
2023-03-02T01:26:24.173Z,1616.2230
2023-03-02T01:26:35.223Z,1611.3459
2023-03-02T01:26:46.285Z,1622.1140
2023-03-02T01:26:57.448Z,1615.2450
2023-03-02T01:27:08.646Z,1613.2930
2023-03-02T01:27:19.837Z,1607.4650
2023-03-02T01:27:31.064Z,1618.1820
2023-03-02T01:27:42.103Z,1613.2930
2023-03-02T01:27:53.201Z,1610.3740
2023-03-02T01:28:04.322Z,1596.8900
2023-03-02T01:28:15.374Z,1610.3740
2023-03-02T01:28:26.410Z,1612.3190
2023-03-02T01:28:37.612Z,1618.1820
2023-03-02T01:28:50.026Z,1618.1820
2023-03-02T01:29:01.337Z,1612.3190
2023-03-02T01:29:12.414Z,1605.5320
2023-03-02T01:29:23.491Z,1610.3740
2023-03-02T01:29:34.514Z,1614.2679
2023-03-02T01:29:45.577Z,1615.2450
2023-03-02T01:29:56.634Z,1609.4030
2023-03-02T01:30:07.864Z,1603.6040
2023-03-02T01:30:19.030Z,1618.1820
2023-03-02T01:30:30.242Z,1617.2020
2023-03-02T01:30:41.354Z,1617.2020
2023-03-02T01:30:52.414Z,1612.3190
2023-03-02T01:31:03.558Z,1610.3740
2023-03-02T01:31:14.624Z,1612.3190
2023-03-02T01:31:25.727Z,1614.2679
2023-03-02T01:31:36.839Z,1624.0880
2023-03-02T01:31:48.055Z,1613.2930
2023-03-02T01:31:59.355Z,1614.2679
2023-03-02T01:32:10.513Z,1615.2450
2023-03-02T01:32:21.605Z,1617.2020
2023-03-02T01:32:32.767Z,1615.2450
2023-03-02T01:32:44.001Z,1607.4650
2023-03-02T01:32:55.200Z,1618.1820
2023-03-02T01:33:06.403Z,1621.1290
2023-03-02T01:33:17.601Z,1600.7190
2023-03-02T01:33:28.795Z,1616.2230
2023-03-02T01:33:40.016Z,1619.1630
2023-03-02T01:33:51.116Z,1616.2230
2023-03-02T01:34:02.206Z,1619.1630
2023-03-02T01:34:13.320Z,1614.2679
2023-03-02T01:34:24.520Z,1613.2930
2023-03-02T01:34:35.603Z,1614.2679
2023-03-02T01:34:46.646Z,1602.6410
2023-03-02T01:34:57.712Z,1612.3190
2023-03-02T01:35:08.960Z,1614.2679
2023-03-02T01:35:20.181Z,1610.3740
2023-03-02T01:35:31.401Z,1623.1000
2023-03-02T01:35:42.532Z,1626.0660
2023-03-02T01:35:53.796Z,1615.2450
2023-03-02T01:36:04.956Z,1618.1820
2023-03-02T01:36:16.162Z,1619.1630
2023-03-02T01:36:27.364Z,1612.3190
2023-03-02T01:36:38.555Z,1596.8900
2023-03-02T01:36:49.776Z,1606.4980
2023-03-02T01:37:00.885Z,1618.1820
2023-03-02T01:37:11.931Z,1604.5670
2023-03-02T01:37:23.040Z,1618.1820
2023-03-02T01:37:34.255Z,1618.1820
2023-03-02T01:37:45.451Z,1629.0420
2023-03-02T01:37:56.649Z,1599.7600
2023-03-02T01:38:07.873Z,1616.2230
2023-03-02T01:38:19.085Z,1618.1820
2023-03-02T01:38:30.316Z,1612.3190
2023-03-02T01:38:41.569Z,1618.1820
2023-03-02T01:38:52.700Z,1627.0570
2023-03-02T01:39:03.743Z,1612.3190
2023-03-02T01:39:14.856Z,1608.4340
2023-03-02T01:39:25.914Z,1605.5320
2023-03-02T01:39:36.984Z,1604.5670
2023-03-02T01:39:48.061Z,1619.1630
2023-03-02T01:39:59.199Z,1614.2679
2023-03-02T01:40:10.241Z,1612.3190
2023-03-02T01:40:21.289Z,1600.7190
2023-03-02T01:40:32.741Z,1613.2930
2023-03-02T01:40:43.820Z,1615.2450
2023-03-02T01:40:54.889Z,1617.2020
2023-03-02T01:41:06.080Z,1622.1140
2023-03-02T01:41:17.144Z,1618.1820
2023-03-02T01:41:28.209Z,1641.0570
2023-03-02T01:41:39.353Z,1613.2930
2023-03-02T01:41:50.562Z,1612.3190
2023-03-02T01:42:01.754Z,1612.3190
2023-03-02T01:42:12.960Z,1618.1820
2023-03-02T01:42:24.196Z,1620.1460
2023-03-02T01:42:35.376Z,1621.1290
2023-03-02T01:42:46.553Z,1622.1140
2023-03-02T01:42:57.756Z,1606.4980
2023-03-02T01:43:08.968Z,1618.1820
2023-03-02T01:43:20.042Z,1618.1820
2023-03-02T01:43:31.289Z,1611.3459
2023-03-02T01:43:42.351Z,1614.2679
2023-03-02T01:43:53.452Z,1619.1630
2023-03-02T01:44:04.641Z,1627.0570
2023-03-02T01:44:15.703Z,1624.0880
2023-03-02T01:44:26.743Z,1618.1820
2023-03-02T01:44:37.936Z,1620.1460
2023-03-02T01:44:49.124Z,1611.3459
2023-03-02T01:45:00.317Z,1614.2679
2023-03-02T01:45:11.527Z,1619.1630
2023-03-02T01:45:22.748Z,1613.2930
2023-03-02T01:45:33.983Z,1618.1820
2023-03-02T01:45:45.209Z,1616.2230
2023-03-02T01:45:56.325Z,1610.3740
2023-03-02T01:46:07.596Z,1620.1460
2023-03-02T01:46:18.669Z,1620.1460
2023-03-02T01:46:30.132Z,1630.0370
2023-03-02T01:46:41.541Z,1616.2230
2023-03-02T01:46:52.639Z,1621.1290
2023-03-02T01:47:03.866Z,1620.1460
2023-03-02T01:47:15.042Z,1613.2930
2023-03-02T01:47:26.064Z,1620.1460
2023-03-02T01:47:37.137Z,1599.7600
2023-03-02T01:47:48.316Z,1610.3740
2023-03-02T01:47:59.521Z,1622.1140
2023-03-02T01:48:10.727Z,1624.0880
2023-03-02T01:48:21.775Z,1616.2230
2023-03-02T01:48:32.819Z,1614.2679
2023-03-02T01:48:44.003Z,1622.1140
2023-03-02T01:48:55.209Z,1618.1820
2023-03-02T01:49:06.437Z,1620.1460
2023-03-02T01:49:17.623Z,1620.1460
2023-03-02T01:49:28.794Z,1626.0660
2023-03-02T01:49:40.002Z,1619.1630
2023-03-02T01:49:51.207Z,1623.1000
2023-03-02T01:50:02.402Z,1621.1290
2023-03-02T01:50:13.601Z,1624.0880
2023-03-02T01:50:24.656Z,1608.4340
2023-03-02T01:50:35.685Z,1624.0880
2023-03-02T01:50:46.884Z,1623.1000
2023-03-02T01:50:58.077Z,1622.1140
2023-03-02T01:51:09.118Z,1616.2230
2023-03-02T01:51:20.161Z,1619.1630
2023-03-02T01:51:31.359Z,1620.1460
2023-03-02T01:51:42.396Z,1636.0291
2023-03-02T01:51:53.468Z,1618.1820
2023-03-02T01:52:04.654Z,1623.1000
2023-03-02T01:52:15.904Z,1621.1290
2023-03-02T01:52:27.617Z,1613.2930
2023-03-02T01:52:38.671Z,1614.2679
2023-03-02T01:52:49.791Z,1619.1630
2023-03-02T01:53:04.787Z,1620.1460
2023-03-02T01:53:16.697Z,1604.5670
2023-03-02T01:53:27.726Z,1619.1630
2023-03-02T01:53:38.795Z,1621.1290
2023-03-02T01:53:49.940Z,1607.4650
2023-03-02T01:54:00.998Z,1615.2450
2023-03-02T01:54:12.087Z,1608.4340
2023-03-02T01:54:23.495Z,1620.1460
2023-03-02T01:54:34.712Z,1622.1140
2023-03-02T01:54:45.912Z,1612.3190
2023-03-02T01:54:57.016Z,1622.1140
2023-03-02T01:55:08.090Z,1626.0660
2023-03-02T01:55:19.207Z,1619.1630
2023-03-02T01:55:30.399Z,1610.3740
2023-03-02T01:55:41.619Z,1608.4340
2023-03-02T01:55:52.799Z,1622.1140
2023-03-02T01:56:03.832Z,1621.1290
2023-03-02T01:56:14.874Z,1630.0370
2023-03-02T01:56:25.913Z,1625.0760
2023-03-02T01:56:36.965Z,1622.1140
2023-03-02T01:56:48.152Z,1624.0880
2023-03-02T01:56:59.387Z,1626.0660
2023-03-02T01:57:10.433Z,1617.2020
2023-03-02T01:57:21.507Z,1622.1140
2023-03-02T01:57:32.647Z,1621.1290
2023-03-02T01:57:43.998Z,1612.3190
2023-03-02T01:57:55.074Z,1617.2020
2023-03-02T01:58:06.240Z,1623.1000
2023-03-02T01:58:17.284Z,1626.0660
2023-03-02T01:58:28.354Z,1626.0660
2023-03-02T01:58:39.521Z,1616.2230
2023-03-02T01:58:50.729Z,1618.1820
2023-03-02T01:59:01.787Z,1622.1140
2023-03-02T01:59:12.883Z,1614.2679
2023-03-02T01:59:23.965Z,1618.1820
2023-03-02T01:59:35.003Z,1616.2230
2023-03-02T01:59:46.082Z,1624.0880
2023-03-02T01:59:57.272Z,1628.0490
2023-03-02T02:00:08.500Z,1620.1460
2023-03-02T02:00:19.676Z,1625.0760
2023-03-02T02:00:30.733Z,1626.0660
2023-03-02T02:00:41.833Z,1627.0570
2023-03-02T02:00:53.068Z,1618.1820
2023-03-02T02:01:04.259Z,1621.1290
2023-03-02T02:01:15.584Z,1624.0880
2023-03-02T02:01:26.988Z,1624.0880
2023-03-02T02:01:38.074Z,1624.0880
2023-03-02T02:01:49.273Z,1625.0760
2023-03-02T02:02:00.493Z,1642.0660
2023-03-02T02:02:11.685Z,1627.0570
2023-03-02T02:02:22.876Z,1620.1460
2023-03-02T02:02:33.933Z,1614.2679
2023-03-02T02:02:45.008Z,1616.2230
2023-03-02T02:02:56.171Z,1623.1000
2023-03-02T02:03:07.217Z,1627.0570
2023-03-02T02:03:18.233Z,1623.1000
2023-03-02T02:03:29.453Z,1619.1630
2023-03-02T02:03:40.521Z,1616.2230
2023-03-02T02:03:51.632Z,1622.1140
2023-03-02T02:04:02.797Z,1625.0760
2023-03-02T02:04:13.967Z,1624.0880
2023-03-02T02:04:25.240Z,1627.0570
2023-03-02T02:04:36.320Z,1624.0880
2023-03-02T02:04:47.519Z,1622.1140
2023-03-02T02:04:58.724Z,1624.0880
2023-03-02T02:05:09.755Z,1618.1820
2023-03-02T02:05:20.810Z,1625.0760
2023-03-02T02:05:32.006Z,1632.0291
2023-03-02T02:05:43.052Z,1622.1140
2023-03-02T02:05:54.088Z,1626.0660
2023-03-02T02:06:05.281Z,1604.5670
2023-03-02T02:06:16.320Z,1619.1630
2023-03-02T02:06:27.369Z,1630.0370
2023-03-02T02:06:38.589Z,1634.0270
2023-03-02T02:06:49.593Z,1626.0660
2023-03-02T02:07:00.647Z,1618.1820
2023-03-02T02:07:11.837Z,1626.0660
2023-03-02T02:07:22.907Z,1624.0880
2023-03-02T02:07:33.969Z,1603.6040